Time;durP1;ratioP1;P1;durP2;ratioP2;P2;SDS_P1;SDS_P2;PMS_P1;PMS_P2;Temp;Humidity;BMP_temperature;BMP_pressure;BME280_temperature;BME280_humidity;BME280_pressure;Samples;Min_cycle;Max_cycle;Signal;HPM_P1;HPM_P2
2021/03/28 00:01:09;;;;;;;7.07;2.28;;;4.90;90.70;;;;;;5098988;28;20036;-90
2021/03/28 00:03:37;;;;;;;3.72;2.25;;;5.00;90.60;;;;;;5101617;28;20705;-89
2021/03/28 00:06:14;;;;;;;2.53;2.08;;;5.00;90.50;;;;;;5115390;28;20042;-88
2021/03/28 00:08:43;;;;;;;3.97;2.33;;;5.00;90.40;;;;;;5099753;28;20622;-87
2021/03/28 00:11:19;;;;;;;4.78;2.58;;;5.00;90.50;;;;;;5095789;28;20036;-87
2021/03/28 00:13:53;;;;;;;2.88;2.22;;;5.00;90.50;;;;;;5098827;28;20047;-88
2021/03/28 00:16:22;;;;;;;3.00;2.00;;;5.00;90.50;;;;;;5099856;28;20123;-88
2021/03/28 00:19:20;;;;;;;3.42;2.10;;;4.90;90.60;;;;;;5098275;28;20040;-89
2021/03/28 00:21:56;;;;;;;3.85;2.60;;;4.90;90.60;;;;;;5079856;28;20039;-88
2021/03/28 00:24:37;;;;;;;5.00;2.67;;;4.90;90.70;;;;;;5097374;28;20043;-87
2021/03/28 00:27:07;;;;;;;6.32;2.63;;;4.90;90.70;;;;;;5098388;28;20032;-87
2021/03/28 00:29:57;;;;;;;4.30;2.95;;;4.80;90.70;;;;;;5098446;28;20071;-89
2021/03/28 00:32:37;;;;;;;6.07;2.20;;;4.80;90.80;;;;;;5098352;28;20506;-87
2021/03/28 00:35:10;;;;;;;5.05;2.85;;;4.80;90.80;;;;;;5111783;28;20048;-87
2021/03/28 00:37:37;;;;;;;5.20;2.63;;;4.80;90.80;;;;;;5098295;28;20040;-87
2021/03/28 00:40:08;;;;;;;5.40;2.42;;;4.70;90.80;;;;;;5097795;28;20039;-88
2021/03/28 00:42:42;;;;;;;3.13;2.40;;;4.70;90.80;;;;;;5098703;28;20040;-88
2021/03/28 00:45:30;;;;;;;4.82;2.20;;;4.70;90.80;;;;;;5096169;28;20032;-88
2021/03/28 00:48:15;;;;;;;3.40;2.58;;;4.70;90.70;;;;;;5098601;28;20095;-86
2021/03/28 00:51:11;;;;;;;3.88;2.47;;;4.70;90.90;;;;;;5099413;28;20472;-87
2021/03/28 00:53:49;;;;;;;3.63;2.30;;;4.70;90.90;;;;;;5098782;28;20082;-88
2021/03/28 00:56:19;;;;;;;3.97;2.40;;;4.60;91.10;;;;;;5098862;28;20039;-88
2021/03/28 00:58:51;;;;;;;4.93;2.60;;;4.50;91.20;;;;;;5097299;28;20040;-88
2021/03/28 01:01:34;;;;;;;4.63;2.65;;;4.50;91.30;;;;;;5100262;28;20074;-90
2021/03/28 01:04:36;;;;;;;4.57;2.35;;;4.60;91.20;;;;;;5097405;28;20040;-88
2021/03/28 01:07:25;;;;;;;4.10;1.95;;;4.60;91.30;;;;;;5088527;28;20386;-90
2021/03/28 01:10:09;;;;;;;5.47;2.45;;;4.50;91.20;;;;;;5067570;28;20075;-89
2021/03/28 01:13:05;;;;;;;3.70;1.88;;;4.50;91.20;;;;;;5098465;28;20114;-89
2021/03/28 01:15:55;;;;;;;7.55;2.22;;;4.50;91.30;;;;;;5098119;28;20032;-89
2021/03/28 01:18:30;;;;;;;4.65;2.50;;;4.50;91.30;;;;;;5077551;28;20039;-88
2021/03/28 01:21:11;;;;;;;5.30;2.10;;;4.50;91.30;;;;;;5096939;28;20133;-89
2021/03/28 01:23:41;;;;;;;3.60;1.95;;;4.50;91.50;;;;;;5100117;28;20510;-89
2021/03/28 01:26:33;;;;;;;5.50;1.83;;;4.50;91.50;;;;;;5107540;28;20042;-90
2021/03/28 01:29:11;;;;;;;2.25;2.05;;;4.50;91.40;;;;;;5098161;28;20051;-89
2021/03/28 01:31:51;;;;;;;4.90;3.03;;;4.50;91.40;;;;;;5097203;28;20040;-90
2021/03/28 01:34:40;;;;;;;5.63;2.45;;;4.50;91.40;;;;;;5096078;28;20426;-89
2021/03/28 01:37:19;;;;;;;2.88;2.17;;;4.50;91.40;;;;;;5096639;28;20036;-89
2021/03/28 01:39:56;;;;;;;5.07;2.55;;;4.50;91.40;;;;;;5096869;28;20047;-89
2021/03/28 01:42:52;;;;;;;3.92;2.08;;;4.40;91.50;;;;;;5096963;28;20043;-88
2021/03/28 01:45:46;;;;;;;2.88;2.20;;;4.40;91.50;;;;;;5097238;28;20044;-89
2021/03/28 01:48:49;;;;;;;8.32;2.72;;;4.40;91.60;;;;;;5090049;28;20032;-88
2021/03/28 01:51:36;;;;;;;6.28;2.63;;;4.30;91.70;;;;;;5099070;28;20419;-88
2021/03/28 01:54:18;;;;;;;5.88;2.30;;;4.30;91.80;;;;;;5092589;28;20047;-88
2021/03/28 01:56:52;;;;;;;7.60;1.95;;;4.30;91.80;;;;;;5096305;28;20040;-89
2021/03/28 01:59:34;;;;;;;4.45;1.88;;;4.20;91.90;;;;;;5097348;28;20047;-88
2021/03/28 02:02:02;;;;;;;3.35;2.10;;;4.20;91.70;;;;;;5097370;28;20154;-89
2021/03/28 02:04:54;;;;;;;4.75;2.83;;;4.20;91.70;;;;;;5095866;28;20035;-88
2021/03/28 02:07:50;;;;;;;5.63;2.40;;;4.30;91.60;;;;;;5097771;28;20051;-89
2021/03/28 02:10:44;;;;;;;2.90;1.85;;;4.20;91.50;;;;;;5096608;28;20027;-89
2021/03/28 02:13:28;;;;;;;2.75;2.47;;;4.30;91.50;;;;;;5083797;28;20028;-90
2021/03/28 02:16:19;;;;;;;7.55;2.00;;;4.30;91.40;;;;;;5095663;28;20460;-88
2021/03/28 02:18:54;;;;;;;6.90;1.80;;;4.20;91.50;;;;;;5096949;28;20063;-89
2021/03/28 02:21:28;;;;;;;3.65;2.28;;;4.20;91.50;;;;;;5097669;28;20381;-89
2021/03/28 02:24:12;;;;;;;2.83;2.25;;;4.20;91.60;;;;;;5088258;28;20042;-88
2021/03/28 02:27:01;;;;;;;3.75;2.25;;;4.20;91.70;;;;;;5103488;28;20067;-90
2021/03/28 02:29:49;;;;;;;4.93;2.38;;;4.20;91.70;;;;;;5097104;28;20115;-88
2021/03/28 02:32:41;;;;;;;3.30;2.25;;;4.10;91.70;;;;;;5096638;28;20051;-88
2021/03/28 02:35:33;;;;;;;7.78;2.22;;;4.10;91.60;;;;;;5112322;28;20039;-89
2021/03/28 02:38:31;;;;;;;3.20;2.13;;;4.10;91.70;;;;;;5090599;28;20135;-88
2021/03/28 02:41:00;;;;;;;3.20;2.20;;;4.10;91.90;;;;;;5094473;28;20039;-88
2021/03/28 02:43:44;;;;;;;3.30;1.95;;;4.10;92.10;;;;;;5095701;28;20040;-88
2021/03/28 02:46:26;;;;;;;2.38;1.77;;;4.00;92.10;;;;;;5096052;28;20039;-88
2021/03/28 02:49:36;;;;;;;2.90;2.33;;;4.10;91.90;;;;;;5096754;28;20040;-89
2021/03/28 02:52:24;;;;;;;4.35;2.38;;;4.10;91.90;;;;;;5093967;28;20368;-88
2021/03/28 02:54:58;;;;;;;6.55;2.40;;;4.00;91.80;;;;;;5096101;28;20040;-88
2021/03/28 02:57:46;;;;;;;5.63;2.33;;;4.00;92.00;;;;;;5095795;28;20040;-88
2021/03/28 03:00:23;;;;;;;2.50;1.98;;;4.00;92.10;;;;;;5087568;28;20040;-87
2021/03/28 03:02:49;;;;;;;5.00;2.33;;;4.10;92.10;;;;;;5085972;28;20036;-88
2021/03/28 03:05:24;;;;;;;3.50;2.00;;;4.00;92.10;;;;;;5096527;28;20044;-87
2021/03/28 03:08:10;;;;;;;5.82;2.13;;;4.10;92.10;;;;;;5094065;28;20310;-87
2021/03/28 03:11:08;;;;;;;2.85;2.10;;;4.00;92.40;;;;;;5095462;28;20035;-86
2021/03/28 03:13:54;;;;;;;4.95;2.00;;;4.00;92.00;;;;;;5094488;28;20415;-89
2021/03/28 03:16:37;;;;;;;3.55;2.30;;;4.10;91.90;;;;;;5096645;28;20046;-88
2021/03/28 03:19:41;;;;;;;3.40;1.98;;;4.10;91.90;;;;;;5096466;28;20040;-88
2021/03/28 03:22:09;;;;;;;3.83;2.15;;;4.10;91.90;;;;;;5061147;28;20104;-89
2021/03/28 03:24:56;;;;;;;3.50;2.38;;;4.00;91.90;;;;;;5095617;28;20293;-87
2021/03/28 03:27:51;;;;;;;10.18;2.40;;;4.00;91.90;;;;;;5095618;28;20036;-88
2021/03/28 03:30:32;;;;;;;3.00;1.75;;;4.00;91.90;;;;;;5064289;28;20198;-88
2021/03/28 03:33:36;;;;;;;3.42;2.42;;;4.00;91.90;;;;;;5087616;28;20044;-88
2021/03/28 03:36:04;;;;;;;7.43;2.58;;;4.00;91.90;;;;;;5087294;28;20071;-88
2021/03/28 03:38:51;;;;;;;6.78;2.42;;;4.00;92.00;;;;;;5095227;28;20040;-89
2021/03/28 03:41:45;;;;;;;5.43;2.45;;;4.00;91.90;;;;;;5096846;28;20036;-88
2021/03/28 03:44:31;;;;;;;3.45;2.17;;;4.00;92.00;;;;;;5078383;28;20115;-88
2021/03/28 03:47:22;;;;;;;7.03;2.45;;;4.00;92.10;;;;;;5095373;28;20075;-88
2021/03/28 03:50:11;;;;;;;4.55;2.78;;;4.00;92.10;;;;;;5094907;28;20040;-88
2021/03/28 03:52:58;;;;;;;5.45;2.65;;;4.00;92.10;;;;;;5095933;28;20043;-87
2021/03/28 03:55:26;;;;;;;6.53;2.72;;;4.00;92.10;;;;;;5096455;28;20044;-87
2021/03/28 03:57:59;;;;;;;2.45;2.03;;;4.10;92.00;;;;;;5098151;28;20047;-88
2021/03/28 04:00:41;;;;;;;3.75;2.35;;;4.10;92.00;;;;;;5098826;28;20075;-88
2021/03/28 04:03:24;;;;;;;8.27;2.17;;;4.10;91.90;;;;;;5095057;28;20043;-88
2021/03/28 04:05:54;;;;;;;;;;;4.10;91.90;;;;;;5099214;28;20040;-86
2021/03/28 04:08:30;;;;;;;6.43;2.10;;;4.10;91.80;;;;;;5098919;28;19908;-87
2021/03/28 04:11:28;;;;;;;3.15;2.22;;;4.10;91.90;;;;;;5098968;28;20059;-88
2021/03/28 04:14:11;;;;;;;4.28;2.70;;;4.10;91.90;;;;;;5098543;28;20051;-87
2021/03/28 04:16:47;;;;;;;4.65;2.92;;;4.10;91.90;;;;;;5098113;28;20032;-89
2021/03/28 04:19:18;;;;;;;7.60;2.67;;;4.20;91.90;;;;;;5099106;28;20070;-88
2021/03/28 04:22:06;;;;;;;5.55;3.03;;;4.20;91.90;;;;;;5097479;28;20036;-87
2021/03/28 04:24:50;;;;;;;5.68;3.47;;;4.20;91.80;;;;;;5100784;28;20035;-88
2021/03/28 04:27:55;;;;;;;4.47;2.78;;;4.20;91.80;;;;;;5098870;28;20097;-86
2021/03/28 04:30:47;;;;;;;10.27;3.45;;;4.20;91.80;;;;;;5097877;28;20079;-87
2021/03/28 04:33:33;;;;;;;3.60;2.70;;;4.20;92.00;;;;;;5094291;28;20039;-88
2021/03/28 04:36:17;;;;;;;7.53;2.97;;;4.20;91.70;;;;;;5097998;28;20471;-88
2021/03/28 04:39:00;;;;;;;5.18;2.90;;;4.20;91.70;;;;;;5098589;28;20068;-87
2021/03/28 04:41:56;;;;;;;4.38;2.97;;;4.20;91.80;;;;;;5083777;28;20039;-87
2021/03/28 04:44:34;;;;;;;5.15;2.80;;;4.20;91.80;;;;;;5098138;28;20032;-88
2021/03/28 04:47:31;;;;;;;5.53;3.47;;;4.20;91.90;;;;;;5096946;28;20043;-88
2021/03/28 04:50:14;;;;;;;5.45;3.63;;;4.20;91.90;;;;;;5089595;28;20441;-87
2021/03/28 04:53:13;;;;;;;6.63;2.70;;;4.20;91.90;;;;;;5087522;28;20035;-87
2021/03/28 04:56:13;;;;;;;4.63;3.25;;;4.20;92.00;;;;;;5092754;28;20051;-88
2021/03/28 04:58:54;;;;;;;5.28;2.70;;;4.20;92.00;;;;;;5097333;28;20071;-88
2021/03/28 05:01:52;;;;;;;7.80;2.85;;;4.20;92.00;;;;;;5097637;28;20047;-88
2021/03/28 05:04:32;;;;;;;4.50;2.90;;;4.30;92.00;;;;;;5097460;28;20172;-88
2021/03/28 05:07:31;;;;;;;6.72;3.15;;;4.30;92.00;;;;;;5097694;28;20133;-87
2021/03/28 05:10:03;;;;;;;5.85;2.83;;;4.30;92.00;;;;;;5096828;28;20035;-88
2021/03/28 05:12:40;;;;;;;7.97;2.88;;;4.30;91.90;;;;;;5097378;28;20035;-87
2021/03/28 05:15:44;;;;;;;5.30;2.95;;;4.40;91.90;;;;;;5098212;28;20036;-87
2021/03/28 05:18:27;;;;;;;4.70;2.78;;;4.40;91.80;;;;;;5097761;28;20680;-88
2021/03/28 05:21:19;;;;;;;3.92;2.42;;;4.40;91.70;;;;;;5097981;28;20047;-89
2021/03/28 05:24:32;;;;;;;7.25;2.45;;;4.50;91.70;;;;;;5097837;28;20410;-87
2021/03/28 05:27:33;;;;;;;;;;;4.40;91.60;;;;;;5097670;28;20096;-88
2021/03/28 05:30:08;;;;;;;4.93;2.70;;;4.50;91.50;;;;;;5053508;28;19909;-87
2021/03/28 05:32:49;;;;;;;9.90;2.70;;;4.50;91.60;;;;;;5086671;28;20036;-88
2021/03/28 05:35:27;;;;;;;4.07;2.47;;;4.50;91.60;;;;;;5096778;28;20055;-87
2021/03/28 05:37:59;;;;;;;10.60;3.20;;;4.60;91.40;;;;;;5093389;28;20064;-88
2021/03/28 05:40:43;;;;;;;5.90;2.80;;;4.60;91.40;;;;;;5097414;28;20044;-87
2021/03/28 05:43:40;;;;;;;5.20;2.83;;;4.60;91.40;;;;;;5096992;28;20032;-87
2021/03/28 05:46:31;;;;;;;5.10;2.38;;;4.70;91.30;;;;;;5098012;28;20055;-88
2021/03/28 05:49:23;;;;;;;8.20;2.60;;;4.70;91.20;;;;;;5096115;28;20040;-87
2021/03/28 05:52:16;;;;;;;8.25;3.17;;;4.70;91.10;;;;;;5097490;28;20079;-89
2021/03/28 05:55:20;;;;;;;4.97;3.20;;;4.80;91.10;;;;;;5096254;28;20115;-88
2021/03/28 05:57:51;;;;;;;;;;;4.80;91.10;;;;;;5097634;28;20044;-88
2021/03/28 06:01:00;;;;;;;5.13;2.10;;;4.80;90.90;;;;;;5096721;28;19916;-89
2021/03/28 06:04:02;;;;;;;6.55;2.63;;;4.80;90.90;;;;;;5110507;28;20115;-88
2021/03/28 06:06:43;;;;;;;8.43;3.15;;;4.80;91.00;;;;;;5073576;28;20131;-89
2021/03/28 06:09:46;;;;;;;7.55;2.65;;;4.80;91.10;;;;;;5097061;28;20044;-88
2021/03/28 06:12:54;;;;;;;7.28;2.60;;;4.90;91.10;;;;;;5097821;28;20032;-89
2021/03/28 06:15:26;;;;;;;5.95;2.90;;;4.90;91.00;;;;;;5077249;28;20044;-89
2021/03/28 06:18:10;;;;;;;9.00;3.13;;;5.00;91.10;;;;;;5097890;28;20044;-88
2021/03/28 06:20:47;;;;;;;5.20;2.83;;;5.10;91.00;;;;;;5096447;28;20044;-88
2021/03/28 06:23:31;;;;;;;6.30;2.88;;;5.30;90.80;;;;;;5096729;28;20050;-90
2021/03/28 06:26:18;;;;;;;4.97;2.30;;;5.40;90.60;;;;;;5097906;28;20386;-89
2021/03/28 06:28:57;;;;;;;5.05;2.80;;;5.60;90.30;;;;;;5096865;28;20093;-88
2021/03/28 06:31:25;;;;;;;7.38;2.90;;;5.70;89.80;;;;;;5097000;28;20032;-89
2021/03/28 06:34:28;;;;;;;5.47;2.33;;;5.80;90.40;;;;;;5096013;28;20040;-88
2021/03/28 06:37:31;;;;;;;11.07;3.28;;;5.90;89.70;;;;;;5095800;28;20097;-89
2021/03/28 06:40:39;;;;;;;;;;;5.90;90.20;;;;;;5108309;28;20134;-90
2021/03/28 06:43:52;;;;;;;4.50;2.97;;;6.00;89.30;;;;;;5059350;28;19913;-89
2021/03/28 06:46:23;;;;;;;4.22;2.85;;;6.10;88.70;;;;;;5040798;28;20056;-88
2021/03/28 06:49:13;;;;;;;4.25;2.33;;;6.00;89.60;;;;;;5078324;28;20036;-89
2021/03/28 06:51:51;;;;;;;4.95;2.63;;;6.20;89.10;;;;;;5096333;28;20470;-88
2021/03/28 06:54:51;;;;;;;6.20;2.42;;;6.30;88.90;;;;;;5096094;28;20105;-88
2021/03/28 06:57:54;;;;;;;6.03;3.00;;;6.40;88.50;;;;;;5088636;28;20036;-88
2021/03/28 07:00:23;;;;;;;;;;;6.50;89.10;;;;;;5097165;28;20044;-89
2021/03/28 07:03:25;;;;;;;3.88;2.42;;;6.50;88.10;;;;;;5112405;28;19912;-89
2021/03/28 07:06:37;;;;;;;4.50;2.30;;;6.60;87.90;;;;;;5093978;28;20347;-89
2021/03/28 07:09:44;;;;;;;5.15;2.75;;;6.70;87.50;;;;;;5085884;28;20452;-89
2021/03/28 07:13:05;;;;;;;7.32;2.35;;;6.70;87.20;;;;;;5094973;28;20430;-88
2021/03/28 07:15:50;;;;;;;3.53;2.78;;;6.80;86.10;;;;;;5071923;28;20044;-89
2021/03/28 07:18:40;;;;;;;4.28;2.72;;;6.90;86.60;;;;;;5094783;28;20142;-88
2021/03/28 07:21:52;;;;;;;4.50;2.33;;;7.00;87.00;;;;;;5095215;28;20032;-88
2021/03/28 07:24:53;;;;;;;4.30;2.60;;;7.10;86.20;;;;;;5095493;28;20297;-89
2021/03/28 07:27:51;;;;;;;8.05;2.70;;;7.20;85.80;;;;;;5094612;28;20036;-89
2021/03/28 07:30:25;;;;;;;7.22;2.72;;;7.30;86.30;;;;;;5088545;28;20400;-89
2021/03/28 07:33:09;;;;;;;8.70;2.45;;;7.40;85.40;;;;;;5097809;28;20071;-90
2021/03/28 07:36:11;;;;;;;7.07;2.78;;;7.60;84.20;;;;;;5098939;28;20119;-91
2021/03/28 07:39:08;;;;;;;3.28;2.33;;;7.70;84.90;;;;;;5098784;28;20032;-89
2021/03/28 07:41:46;;;;;;;4.95;2.58;;;7.90;84.10;;;;;;5098798;28;20032;-89
2021/03/28 07:44:35;;;;;;;8.32;2.75;;;8.00;83.90;;;;;;5082342;28;20036;-89
2021/03/28 07:47:47;;;;;;;3.35;2.47;;;8.10;82.50;;;;;;5099184;28;20078;-89
2021/03/28 07:50:34;;;;;;;9.15;3.03;;;8.20;83.30;;;;;;5098778;28;20039;-89
2021/03/28 07:53:17;;;;;;;7.00;2.70;;;8.20;82.40;;;;;;5099248;28;20067;-89
2021/03/28 07:56:15;;;;;;;3.85;2.33;;;8.30;82.60;;;;;;5090259;28;20035;-88
2021/03/28 07:59:05;;;;;;;8.48;2.90;;;8.40;82.10;;;;;;5097326;28;20054;-89
2021/03/28 08:01:55;;;;;;;4.63;2.08;;;8.40;81.70;;;;;;5098668;28;20133;-88
2021/03/28 08:04:41;;;;;;;5.57;3.30;;;8.40;83.20;;;;;;5099149;28;20047;-88
2021/03/28 08:07:25;;;;;;;3.50;2.40;;;8.40;82.70;;;;;;5097792;28;20489;-89
2021/03/28 08:10:28;;;;;;;6.93;2.85;;;8.50;82.20;;;;;;5098331;28;20051;-88
2021/03/28 08:13:18;;;;;;;8.70;2.45;;;8.50;81.20;;;;;;5099192;28;20350;-89
2021/03/28 08:15:48;;;;;;;8.40;2.90;;;8.60;82.00;;;;;;5098246;28;20032;-89
2021/03/28 08:18:13;;;;;;;5.97;2.38;;;8.80;81.50;;;;;;5096240;28;20036;-89
2021/03/28 08:21:16;;;;;;;4.38;2.95;;;8.80;81.20;;;;;;5097797;28;20077;-87
2021/03/28 08:24:20;;;;;;;6.53;2.78;;;9.00;80.70;;;;;;5087741;28;20043;-86
2021/03/28 08:26:51;;;;;;;;;;;9.10;80.20;;;;;;5099449;28;20048;-87
2021/03/28 08:29:43;;;;;;;8.32;3.42;;;9.20;80.00;;;;;;5091021;28;19908;-88
2021/03/28 08:32:45;;;;;;;4.13;2.55;;;9.20;79.40;;;;;;5097876;28;20046;-91
2021/03/28 08:35:19;;;;;;;3.67;2.85;;;9.40;80.10;;;;;;5091069;28;20068;-86
2021/03/28 08:37:59;;;;;;;7.65;3.58;;;9.50;78.80;;;;;;5083368;28;20281;-87
2021/03/28 08:41:02;;;;;;;4.75;2.45;;;9.70;78.70;;;;;;5100677;28;20285;-88
2021/03/28 08:44:05;;;;;;;11.65;3.25;;;9.90;79.10;;;;;;5097958;28;20039;-86
2021/03/28 08:46:47;;;;;;;6.75;2.78;;;10.00;77.20;;;;;;5097445;28;20055;-86
2021/03/28 08:49:42;;;;;;;7.30;2.88;;;10.20;77.10;;;;;;5097200;28;20111;-87
2021/03/28 08:52:25;;;;;;;5.88;2.58;;;10.40;76.10;;;;;;5076008;28;20040;-87
2021/03/28 08:55:05;;;;;;;3.35;2.30;;;10.50;76.00;;;;;;5099026;28;20035;-88
2021/03/28 08:57:30;;;;;;;5.05;2.10;;;10.60;75.20;;;;;;5097379;28;20105;-87
2021/03/28 09:00:05;;;;;;;11.93;2.45;;;10.70;74.30;;;;;;5096945;28;20044;-87
2021/03/28 09:02:50;;;;;;;7.88;3.30;;;10.80;73.80;;;;;;5096292;28;20047;-87
2021/03/28 09:05:33;;;;;;;5.50;2.00;;;10.90;74.40;;;;;;5103808;28;20036;-87
2021/03/28 09:08:21;;;;;;;6.45;2.63;;;10.90;73.50;;;;;;5096714;28;20036;-87
2021/03/28 09:11:05;;;;;;;5.50;2.42;;;11.00;73.10;;;;;;5096601;28;20038;-86
2021/03/28 09:13:49;;;;;;;5.38;1.90;;;11.10;72.40;;;;;;5097919;28;20138;-89
2021/03/28 09:16:26;;;;;;;7.80;2.63;;;11.20;73.20;;;;;;5078136;28;20047;-89
2021/03/28 09:19:15;;;;;;;8.32;2.25;;;11.20;72.20;;;;;;5078854;28;20040;-91
2021/03/28 09:22:01;;;;;;;4.25;2.00;;;11.30;73.30;;;;;;5095324;28;20086;-92
2021/03/28 09:25:02;;;;;;;5.53;2.25;;;11.30;72.10;;;;;;5099501;28;20055;-91
2021/03/28 09:27:42;;;;;;;7.05;2.03;;;11.40;70.40;;;;;;5099069;28;20036;-91
2021/03/28 09:30:20;;;;;;;5.13;2.17;;;11.40;71.00;;;;;;5102064;28;20374;-95
2021/03/28 09:33:27;;;;;;;6.72;1.98;;;11.50;70.40;;;;;;5099774;28;20036;-93
2021/03/28 09:53:07;;;;;;;7.63;2.35;;;11.50;70.30;;;;;;5080096;28;20028;-93
2021/03/28 09:56:25;;;;;;;10.38;2.85;;;11.50;70.60;;;;;;5078051;28;20131;-91
2021/03/28 09:59:25;;;;;;;4.15;1.63;;;11.70;70.80;;;;;;5077930;28;20037;-90
2021/03/28 10:02:09;;;;;;;4.40;2.08;;;11.80;68.50;;;;;;5083819;28;20066;-91
2021/03/28 10:04:38;;;;;;;8.43;2.47;;;11.80;70.60;;;;;;5098682;28;20036;-91
2021/03/28 10:07:04;;;;;;;5.57;1.95;;;12.00;69.90;;;;;;5098285;28;20047;-92
2021/03/28 10:10:04;;;;;;;9.65;2.35;;;12.20;67.50;;;;;;5098258;28;20036;-92
2021/03/28 10:12:45;;;;;;;6.40;1.60;;;12.30;66.50;;;;;;5078636;28;20040;-93
2021/03/28 10:15:22;;;;;;;3.60;1.52;;;12.10;66.60;;;;;;5089114;28;20043;-91
2021/03/28 10:18:04;;;;;;;5.45;1.75;;;12.10;66.50;;;;;;5099062;28;20088;-92
2021/03/28 10:20:54;;;;;;;8.02;1.98;;;12.30;68.60;;;;;;5092588;28;20302;-95
2021/03/28 10:23:33;;;;;;;11.25;2.10;;;12.30;66.60;;;;;;5105081;28;20424;-91
2021/03/28 10:26:22;;;;;;;6.43;1.63;;;12.40;67.20;;;;;;5107272;28;20096;-90
2021/03/28 10:29:09;;;;;;;7.45;2.38;;;12.50;68.90;;;;;;5114794;28;20035;-89
2021/03/28 10:31:56;;;;;;;8.25;1.63;;;12.50;68.80;;;;;;5089707;28;20041;-90
2021/03/28 10:34:57;;;;;;;8.65;1.70;;;12.70;65.60;;;;;;5095104;28;20289;-92
2021/03/28 10:37:38;;;;;;;7.82;1.85;;;13.00;67.60;;;;;;5078427;28;20119;-92
2021/03/28 10:40:29;;;;;;;3.78;1.55;;;13.20;67.10;;;;;;5077782;28;20055;-92
2021/03/28 10:43:17;;;;;;;3.58;1.73;;;13.40;64.60;;;;;;5078194;28;20041;-93
2021/03/28 10:46:09;;;;;;;3.47;1.90;;;13.50;65.90;;;;;;5078328;28;20373;-91
2021/03/28 10:49:12;;;;;;;3.13;1.80;;;13.70;63.50;;;;;;5098572;28;20385;-92
2021/03/28 10:52:20;;;;;;;6.53;2.03;;;13.60;64.10;;;;;;5098726;28;20040;-92
2021/03/28 10:55:00;;;;;;;5.18;1.40;;;13.40;62.90;;;;;;5096322;28;20053;-90
2021/03/28 10:57:57;;;;;;;7.55;2.30;;;13.40;64.10;;;;;;5097818;28;20633;-89
2021/03/28 11:00:56;;;;;;;3.45;1.40;;;13.20;63.90;;;;;;5100459;28;20058;-91
2021/03/28 11:03:24;;;;;;;7.03;1.85;;;13.20;63.40;;;;;;5112754;28;20036;-89
2021/03/28 11:06:05;;;;;;;5.57;1.33;;;13.10;64.40;;;;;;5101354;28;20086;-88
2021/03/28 11:08:49;;;;;;;4.32;1.23;;;13.10;64.40;;;;;;5099992;28;20317;-90
2021/03/28 11:11:29;;;;;;;5.82;1.80;;;13.00;64.10;;;;;;5100572;28;20035;-90
2021/03/28 11:14:18;;;;;;;7.55;1.60;;;13.00;63.70;;;;;;5099003;28;20048;-87
2021/03/28 11:17:11;;;;;;;8.27;1.80;;;12.90;63.30;;;;;;5100118;28;20118;-88
2021/03/28 11:20:16;;;;;;;8.95;1.85;;;12.80;65.70;;;;;;5098944;28;20069;-89
2021/03/28 11:22:57;;;;;;;2.70;1.50;;;12.90;64.90;;;;;;5106930;28;20043;-89
2021/03/28 11:25:26;;;;;;;6.75;1.73;;;13.00;65.20;;;;;;5098301;28;20301;-88
2021/03/28 11:27:54;;;;;;;7.63;1.70;;;13.10;64.90;;;;;;5099373;28;20323;-89
2021/03/28 11:30:34;;;;;;;5.32;2.25;;;13.10;63.30;;;;;;5101073;28;20066;-88
2021/03/28 11:33:18;;;;;;;4.43;1.80;;;13.10;64.00;;;;;;5099666;28;20460;-88
2021/03/28 11:36:15;;;;;;;4.50;1.60;;;13.20;63.80;;;;;;5100528;28;20082;-88
2021/03/28 11:38:46;;;;;;;4.68;1.52;;;13.20;63.70;;;;;;5096349;28;20072;-89
2021/03/28 11:41:11;;;;;;;4.50;1.80;;;13.20;64.40;;;;;;5098233;28;20343;-89
2021/03/28 11:43:48;;;;;;;3.33;1.80;;;13.20;64.90;;;;;;5099642;28;20032;-89
2021/03/28 11:46:37;;;;;;;3.95;1.70;;;13.30;64.30;;;;;;5098651;28;20310;-89
2021/03/28 11:49:02;;;;;;;3.80;1.63;;;13.30;63.80;;;;;;5099233;28;20588;-89
2021/03/28 11:51:33;;;;;;;4.03;2.38;;;13.20;64.30;;;;;;5104226;28;20036;-88
2021/03/28 11:54:21;;;;;;;5.07;1.88;;;13.20;64.90;;;;;;5101578;28;20158;-88
2021/03/28 11:57:05;;;;;;;2.85;1.70;;;13.00;65.40;;;;;;5095424;28;20298;-87
2021/03/28 11:59:36;;;;;;;4.38;1.30;;;13.00;65.70;;;;;;5095103;28;20048;-87
2021/03/28 12:02:18;;;;;;;5.25;1.70;;;12.80;64.50;;;;;;5095704;28;20039;-88
2021/03/28 12:04:59;;;;;;;4.87;2.33;;;12.60;65.80;;;;;;5098542;28;20032;-89
2021/03/28 12:07:29;;;;;;;7.13;1.77;;;12.40;66.20;;;;;;5103643;28;20596;-90
2021/03/28 12:10:01;;;;;;;6.65;1.85;;;12.30;67.80;;;;;;5098074;28;20040;-90
2021/03/28 12:12:45;;;;;;;7.57;2.17;;;12.30;67.10;;;;;;5096764;28;20078;-89
2021/03/28 12:15:42;;;;;;;2.25;1.60;;;12.20;68.10;;;;;;5087378;28;20278;-88
2021/03/28 12:18:23;;;;;;;4.07;1.70;;;12.10;68.30;;;;;;5097719;28;20040;-90
2021/03/28 12:21:04;;;;;;;4.82;1.55;;;12.20;69.30;;;;;;5087763;28;20043;-89
2021/03/28 12:23:47;;;;;;;4.60;2.03;;;12.20;68.90;;;;;;5099164;28;20058;-89
2021/03/28 12:26:15;;;;;;;;;;;12.30;68.00;;;;;;5097064;28;20070;-89
2021/03/28 12:28:58;;;;;;;7.43;3.03;;;12.40;69.90;;;;;;5098228;28;20396;-88
2021/03/28 12:31:35;;;;;;;3.42;1.48;;;12.50;68.40;;;;;;5097037;28;20122;-88
2021/03/28 12:34:22;;;;;;;4.47;1.65;;;12.60;68.90;;;;;;5097651;28;20044;-88
2021/03/28 12:36:52;;;;;;;5.45;2.28;;;12.80;69.30;;;;;;5098999;28;20031;-89
2021/03/28 12:39:25;;;;;;;4.75;1.55;;;12.90;68.70;;;;;;5097444;28;20127;-88
2021/03/28 12:42:03;;;;;;;6.80;2.25;;;13.10;67.50;;;;;;5091971;28;20516;-89
2021/03/28 12:44:38;;;;;;;5.78;2.25;;;13.30;66.80;;;;;;5092941;28;20044;-90
2021/03/28 12:47:16;;;;;;;4.28;2.15;;;13.50;67.10;;;;;;5096302;28;20036;-89
2021/03/28 12:49:43;;;;;;;4.82;2.42;;;13.80;66.90;;;;;;5091960;28;20418;-88
2021/03/28 12:52:11;;;;;;;6.47;1.90;;;14.00;67.10;;;;;;5089961;28;20047;-90
2021/03/28 12:54:51;;;;;;;5.63;2.45;;;14.10;65.30;;;;;;5089174;28;20297;-89
2021/03/28 12:57:34;;;;;;;4.70;2.60;;;14.30;67.50;;;;;;5095501;28;20039;-87
2021/03/28 13:00:13;;;;;;;5.88;1.92;;;14.40;63.70;;;;;;5096725;28;20040;-88
2021/03/28 13:02:39;;;;;;;4.78;1.80;;;14.50;65.20;;;;;;5095655;28;20028;-88
2021/03/28 13:05:32;;;;;;;7.88;2.50;;;14.70;63.80;;;;;;5090734;28;20127;-89
2021/03/28 13:08:18;;;;;;;6.50;1.88;;;14.80;64.70;;;;;;5083117;28;20035;-90
2021/03/28 13:10:45;;;;;;;5.07;2.15;;;14.90;62.50;;;;;;5093299;28;20043;-89
2021/03/28 13:13:14;;;;;;;3.78;2.33;;;14.80;63.50;;;;;;5096404;28;20403;-90
2021/03/28 13:15:52;;;;;;;2.85;2.00;;;14.70;63.70;;;;;;5094106;28;20036;-87
2021/03/28 13:18:22;;;;;;;3.35;2.10;;;14.50;64.80;;;;;;5097378;28;20040;-88
2021/03/28 13:20:54;;;;;;;3.35;1.75;;;14.50;63.00;;;;;;5096478;28;20050;-86
2021/03/28 13:23:30;;;;;;;5.15;1.98;;;14.40;65.00;;;;;;5097707;28;20066;-87
2021/03/28 13:26:32;;;;;;;5.82;2.40;;;14.40;64.50;;;;;;5093517;28;20071;-87
2021/03/28 13:29:37;;;;;;;3.37;2.20;;;14.40;64.30;;;;;;5066485;28;20036;-89
2021/03/28 13:32:25;;;;;;;4.82;2.00;;;14.40;63.40;;;;;;5093584;28;20148;-88
2021/03/28 13:35:05;;;;;;;3.72;2.10;;;14.40;63.70;;;;;;5108338;28;20035;-90
2021/03/28 13:37:46;;;;;;;5.50;2.35;;;14.40;64.90;;;;;;5101500;28;20074;-89
2021/03/28 13:40:12;;;;;;;4.05;2.10;;;14.50;65.70;;;;;;5096346;28;20048;-88
2021/03/28 13:42:46;;;;;;;4.47;1.90;;;14.50;65.30;;;;;;5095886;28;20046;-89
2021/03/28 13:45:19;;;;;;;5.68;2.20;;;14.50;65.00;;;;;;5097607;28;20044;-88
2021/03/28 13:47:51;;;;;;;3.75;2.10;;;14.60;64.10;;;;;;5096960;28;20076;-89
2021/03/28 13:50:37;;;;;;;7.80;2.25;;;14.70;64.40;;;;;;5097621;28;20100;-90
2021/03/28 13:53:26;;;;;;;4.47;1.70;;;14.80;65.00;;;;;;5096211;28;20036;-88
2021/03/28 13:55:57;;;;;;;5.57;1.55;;;14.80;62.60;;;;;;5095778;28;20046;-88
2021/03/28 13:58:29;;;;;;;4.25;2.10;;;14.90;63.20;;;;;;5096222;28;20101;-90
2021/03/28 14:01:04;;;;;;;10.68;2.10;;;14.90;63.70;;;;;;5094238;28;20047;-89
2021/03/28 14:03:34;;;;;;;4.97;1.73;;;15.00;62.50;;;;;;5096949;28;20413;-89
2021/03/28 14:06:29;;;;;;;4.93;2.13;;;15.10;62.70;;;;;;5096773;28;20040;-88
2021/03/28 14:09:11;;;;;;;6.03;2.35;;;15.30;63.10;;;;;;5078664;28;20048;-89
2021/03/28 14:11:45;;;;;;;2.72;1.30;;;15.50;61.20;;;;;;5096934;28;20036;-89
2021/03/28 14:14:33;;;;;;;6.57;2.22;;;15.60;61.00;;;;;;5095847;28;20043;-89
2021/03/28 14:17:12;;;;;;;3.58;1.80;;;15.60;62.20;;;;;;5097062;28;20097;-90
2021/03/28 14:19:38;;;;;;;4.93;1.55;;;15.60;61.00;;;;;;5092996;28;20055;-90
2021/03/28 14:22:36;;;;;;;5.28;1.70;;;15.70;60.30;;;;;;5097181;28;20036;-93
2021/03/28 14:25:10;;;;;;;5.90;1.85;;;15.80;60.90;;;;;;5078731;28;20040;-95
2021/03/28 14:27:44;;;;;;;3.47;1.42;;;15.90;59.50;;;;;;5092368;28;20097;-93
2021/03/28 14:30:20;;;;;;;4.45;1.60;;;16.00;59.60;;;;;;5098680;28;20293;-91
2021/03/28 14:32:54;;;;;;;5.82;1.70;;;16.10;58.10;;;;;;5098150;28;20047;-91
2021/03/28 14:35:38;;;;;;;3.95;1.60;;;16.00;58.30;;;;;;5098330;28;20040;-93
2021/03/28 14:38:28;;;;;;;7.82;1.70;;;15.90;58.30;;;;;;5099188;28;20040;-92
2021/03/28 14:41:03;;;;;;;3.38;1.25;;;15.80;58.40;;;;;;5100475;28;20359;-91
2021/03/28 14:43:35;;;;;;;4.28;1.33;;;15.80;57.90;;;;;;5099523;28;20040;-91